Terminal Aerodrome Forecast
Issued by NWS

Home | Current Version | Previous Version | Text Only | Print | Product List | Glossary On
Versions: 1 2 3 4 5 6 7 8 9 10 11 12 13 14 15 16 17
000
FTUS46 KSEW 150520
TAFBLI
TAF
KBLI 150520Z 1506/1606 00000KT P6SM OVC150
     FM151200 16005KT P6SM -RA SCT025 OVC040
     FM151500 17006KT P6SM -RA OVC020
     FM151700 18005KT P6SM -SHRA BKN020=

USA.gov is the U.S. government's official web portal to all federal, state and local government web resources and services.